createdAt,value
2018-08-04T00:02:10.243Z,27.70
2018-08-04T00:04:44.953Z,27.70
2018-08-04T00:07:20.326Z,27.70
2018-08-04T00:09:55.324Z,27.70
2018-08-04T00:12:30.181Z,27.70
2018-08-04T00:15:05.702Z,27.60
2018-08-04T00:17:40.814Z,27.60
2018-08-04T00:20:16.451Z,27.60
2018-08-04T00:22:51.359Z,27.60
2018-08-04T00:25:26.248Z,27.60
2018-08-04T00:28:01.495Z,27.50
2018-08-04T00:30:36.407Z,27.50
2018-08-04T00:33:11.533Z,27.50
2018-08-04T00:35:46.407Z,27.50
2018-08-04T00:38:21.633Z,27.40
2018-08-04T00:40:56.543Z,27.50
2018-08-04T00:43:31.495Z,27.50
2018-08-04T00:46:06.733Z,27.50
2018-08-04T00:48:42.077Z,27.40
2018-08-04T00:51:16.968Z,27.30
2018-08-04T00:53:51.892Z,27.30
2018-08-04T00:56:26.846Z,27.30
2018-08-04T01:01:36.251Z,27.20
2018-08-04T01:04:11.482Z,27.20
2018-08-04T01:06:46.430Z,27.20
2018-08-04T01:09:21.641Z,27.10
2018-08-04T01:11:56.894Z,27.10
2018-08-04T01:14:32.121Z,27.10
2018-08-04T01:17:07.587Z,27.00
2018-08-04T01:19:42.654Z,27.00
2018-08-04T01:22:17.867Z,26.90
2018-08-04T01:24:53.108Z,26.90
2018-08-04T01:27:28.042Z,26.90
2018-08-04T01:30:03.141Z,26.90
2018-08-04T01:32:38.115Z,26.80
2018-08-04T01:35:13.132Z,26.70
2018-08-04T01:37:48.721Z,26.70
2018-08-04T01:40:23.885Z,26.60
2018-08-04T01:42:58.896Z,26.60
2018-08-04T01:45:33.635Z,26.70
2018-08-04T01:48:08.631Z,26.60
2018-08-04T01:50:43.539Z,26.50
2018-08-04T01:53:18.660Z,26.50
2018-08-04T01:55:54.033Z,26.40
2018-08-04T01:58:28.940Z,26.40
2018-08-04T02:03:38.801Z,26.30
2018-08-04T02:06:13.650Z,26.30
2018-08-04T02:08:48.922Z,26.30
2018-08-04T02:11:23.834Z,26.30
2018-08-04T02:13:59.509Z,26.20
2018-08-04T02:16:34.501Z,26.20
2018-08-04T02:19:09.754Z,26.20
2018-08-04T02:21:44.975Z,26.10
2018-08-04T02:24:20.543Z,26.10
2018-08-04T02:26:55.513Z,26.00
2018-08-04T02:29:30.363Z,26.00
2018-08-04T02:34:41.386Z,25.90
2018-08-04T02:37:16.897Z,25.90
2018-08-04T02:39:52.228Z,25.80
2018-08-04T02:42:27.470Z,25.80
2018-08-04T02:45:02.716Z,25.80
2018-08-04T02:47:38.060Z,25.70
2018-08-04T02:50:13.233Z,25.70
2018-08-04T02:52:48.060Z,25.60
2018-08-04T02:55:23.164Z,25.60
2018-08-04T02:57:58.405Z,25.60
2018-08-04T03:00:33.394Z,25.50
2018-08-04T03:03:08.730Z,25.50
2018-08-04T03:05:43.722Z,25.40
2018-08-04T03:08:18.860Z,25.40
2018-08-04T03:10:54.146Z,25.40
2018-08-04T03:13:28.908Z,25.40
2018-08-04T03:16:04.151Z,25.30
2018-08-04T03:18:39.254Z,25.20
2018-08-04T03:21:14.527Z,25.20
2018-08-04T03:23:49.453Z,25.20
2018-08-04T03:26:25.380Z,25.10
2018-08-04T03:29:00.484Z,25.10
2018-08-04T03:31:35.388Z,25.10
2018-08-04T03:34:10.704Z,25.00
2018-08-04T03:36:45.962Z,25.00
2018-08-04T03:39:20.769Z,25.00
2018-08-04T03:41:56.761Z,25.00
2018-08-04T03:47:07.993Z,25.00
2018-08-04T03:49:42.785Z,25.00
2018-08-04T03:52:17.891Z,25.00
2018-08-04T03:54:53.527Z,25.00
2018-08-04T03:57:28.915Z,25.00
2018-08-04T04:00:05.684Z,24.90
2018-08-04T04:02:41.006Z,24.90
2018-08-04T04:05:16.479Z,24.90
2018-08-04T04:07:52.304Z,25.00
2018-08-04T04:10:27.294Z,24.90
2018-08-04T04:13:02.413Z,24.90
2018-08-04T04:15:37.374Z,24.90
2018-08-04T04:18:12.565Z,24.80
2018-08-04T04:20:47.380Z,24.90
2018-08-04T04:23:22.288Z,24.90
2018-08-04T04:25:57.139Z,24.80
2018-08-04T04:28:32.151Z,24.70
2018-08-04T04:31:08.025Z,24.70
2018-08-04T04:33:43.052Z,24.70
2018-08-04T04:36:18.414Z,24.70
2018-08-04T04:38:53.492Z,24.70
2018-08-04T04:41:28.787Z,24.70
2018-08-04T04:44:04.222Z,24.80
2018-08-04T04:46:40.315Z,24.70
2018-08-04T04:49:14.982Z,24.70
2018-08-04T04:51:50.627Z,24.80
2018-08-04T04:54:25.572Z,24.80
2018-08-04T04:57:00.802Z,24.80
2018-08-04T04:59:35.725Z,24.80
2018-08-04T05:02:10.810Z,24.80
2018-08-04T05:04:46.108Z,24.80
2018-08-04T05:07:21.021Z,24.80
2018-08-04T05:09:56.827Z,24.80
2018-08-04T05:15:07.573Z,24.80
2018-08-04T05:17:42.648Z,24.90
2018-08-04T05:20:17.783Z,24.80
2018-08-04T05:22:53.426Z,24.80
2018-08-04T05:25:28.594Z,24.90
2018-08-04T05:30:37.922Z,24.90
2018-08-04T05:33:12.751Z,24.90
2018-08-04T05:35:47.798Z,25.00
2018-08-04T05:38:23.061Z,24.90
2018-08-04T05:40:57.806Z,24.90
2018-08-04T05:46:07.726Z,24.90
2018-08-04T05:48:42.995Z,25.00
2018-08-04T05:51:17.972Z,25.00
2018-08-04T05:53:56.325Z,25.00
2018-08-04T05:56:31.447Z,25.10
2018-08-04T05:59:06.399Z,25.10
2018-08-04T06:01:41.680Z,25.10
2018-08-04T06:04:17.048Z,25.20
2018-08-04T06:06:52.640Z,25.20
2018-08-04T06:09:27.748Z,25.10
2018-08-04T06:12:03.024Z,25.20
2018-08-04T06:14:38.529Z,25.20
2018-08-04T06:17:13.527Z,25.20
2018-08-04T06:19:48.840Z,25.20
2018-08-04T06:22:23.788Z,25.20
2018-08-04T06:24:58.925Z,25.30
2018-08-04T06:27:34.052Z,25.40
2018-08-04T06:30:10.353Z,25.40
2018-08-04T06:32:45.195Z,25.40
2018-08-04T06:35:20.594Z,25.40
2018-08-04T06:37:55.768Z,25.40
2018-08-04T06:40:30.869Z,25.40
2018-08-04T06:43:05.954Z,25.40
2018-08-04T06:45:41.112Z,25.40
2018-08-04T06:48:16.331Z,25.40
2018-08-04T06:50:51.515Z,25.50
2018-08-04T06:53:26.757Z,25.40
2018-08-04T06:56:02.734Z,25.50
2018-08-04T06:58:37.863Z,25.50
2018-08-04T07:01:13.161Z,25.50
2018-08-04T07:03:48.030Z,25.50
2018-08-04T07:06:23.249Z,25.50
2018-08-04T07:08:58.516Z,25.60
2018-08-04T07:11:33.642Z,25.60
2018-08-04T07:14:09.357Z,25.60
2018-08-04T07:16:44.130Z,25.60
2018-08-04T07:19:19.363Z,25.60
2018-08-04T07:22:00.462Z,25.60
2018-08-04T07:24:36.014Z,25.60
2018-08-04T07:27:11.379Z,25.70
2018-08-04T07:29:46.839Z,25.60
2018-08-04T07:32:22.360Z,25.70
2018-08-04T07:34:57.860Z,25.60
2018-08-04T07:37:32.915Z,25.60
2018-08-04T07:40:08.606Z,25.70
2018-08-04T07:42:43.729Z,25.70
2018-08-04T07:45:18.648Z,25.80
2018-08-04T07:47:53.917Z,25.80
2018-08-04T07:50:30.574Z,25.80
2018-08-04T07:53:05.957Z,25.90
2018-08-04T07:55:41.026Z,25.80
2018-08-04T07:58:16.339Z,25.80
2018-08-04T08:00:51.279Z,25.80
2018-08-04T08:03:26.391Z,25.80
2018-08-04T08:06:01.367Z,25.80
2018-08-04T08:08:36.590Z,25.90
2018-08-04T08:11:11.841Z,26.00
2018-08-04T08:13:47.737Z,26.00
2018-08-04T08:16:22.566Z,26.10
2018-08-04T08:18:57.748Z,26.20
2018-08-04T08:21:32.731Z,26.20
2018-08-04T08:24:08.093Z,26.30
2018-08-04T08:26:43.093Z,26.30
2018-08-04T08:29:17.983Z,26.30
2018-08-04T08:31:52.908Z,26.30
2018-08-04T08:34:28.171Z,26.40
2018-08-04T08:37:03.163Z,26.60
2018-08-04T08:39:38.207Z,26.60
2018-08-04T08:42:13.542Z,26.60
2018-08-04T08:44:55.008Z,26.80
2018-08-04T08:47:30.090Z,26.90
2018-08-04T08:50:08.608Z,27.00
2018-08-04T08:52:43.882Z,27.10
2018-08-04T08:55:18.801Z,27.10
2018-08-04T08:57:53.934Z,27.20
2018-08-04T09:00:28.799Z,27.20
2018-08-04T09:03:04.604Z,27.30
2018-08-04T09:05:40.034Z,27.30
2018-08-04T09:08:15.280Z,27.40
2018-08-04T09:10:50.979Z,27.50
2018-08-04T09:13:26.004Z,27.60
2018-08-04T09:16:01.151Z,27.70
2018-08-04T09:21:10.750Z,27.80
2018-08-04T09:23:45.701Z,27.90
2018-08-04T09:26:21.532Z,27.80
2018-08-04T09:28:56.481Z,27.80
2018-08-04T09:31:31.650Z,27.90
2018-08-04T09:34:06.948Z,28.00
2018-08-04T09:36:41.955Z,28.10
2018-08-04T09:39:16.945Z,28.10
2018-08-04T09:41:52.416Z,28.10
2018-08-04T09:44:27.443Z,28.20
2018-08-04T09:47:02.470Z,28.20
2018-08-04T09:49:37.512Z,28.30
2018-08-04T09:52:12.649Z,28.40
2018-08-04T09:54:47.770Z,28.40
2018-08-04T09:57:22.775Z,28.50
2018-08-04T09:59:58.394Z,28.50
2018-08-04T10:02:33.914Z,28.60
2018-08-04T10:05:08.867Z,28.70
2018-08-04T10:07:44.073Z,28.80
2018-08-04T10:10:19.446Z,28.80
2018-08-04T10:12:54.579Z,28.90
2018-08-04T10:15:29.622Z,29.00
2018-08-04T10:18:04.724Z,29.10
2018-08-04T10:20:39.843Z,29.10
2018-08-04T10:23:14.938Z,29.00
2018-08-04T10:25:49.930Z,29.20
2018-08-04T10:28:25.059Z,29.20
2018-08-04T10:31:00.054Z,29.30
2018-08-04T10:33:35.047Z,29.40
2018-08-04T10:36:10.324Z,29.30
2018-08-04T10:38:45.750Z,29.20
2018-08-04T10:41:20.951Z,29.40
2018-08-04T10:43:55.917Z,29.40
2018-08-04T10:46:31.546Z,29.50
2018-08-04T10:49:06.954Z,29.40
2018-08-04T10:51:41.938Z,29.40
2018-08-04T10:54:17.381Z,29.40
2018-08-04T10:56:52.428Z,29.40
2018-08-04T10:59:27.941Z,29.50
2018-08-04T11:02:03.058Z,29.70
2018-08-04T11:04:38.063Z,29.60
2018-08-04T11:07:13.058Z,29.70
2018-08-04T11:09:48.415Z,29.80
2018-08-04T11:12:23.638Z,29.80
2018-08-04T11:14:59.253Z,29.80
2018-08-04T11:17:34.465Z,29.80
2018-08-04T11:20:09.696Z,29.80
2018-08-04T11:22:44.762Z,29.80
2018-08-04T11:25:20.224Z,29.80
2018-08-04T11:27:55.548Z,29.80
2018-08-04T11:30:31.552Z,29.90
2018-08-04T11:33:06.690Z,30.00
2018-08-04T11:35:41.933Z,30.00
2018-08-04T11:38:17.880Z,30.00
2018-08-04T11:40:52.979Z,30.10
2018-08-04T11:43:28.176Z,30.10
2018-08-04T11:46:03.160Z,30.10
2018-08-04T11:48:38.320Z,30.30
2018-08-04T11:51:13.367Z,30.40
2018-08-04T11:53:48.315Z,30.50
2018-08-04T11:56:23.434Z,30.70
2018-08-04T11:58:58.741Z,30.80
2018-08-04T12:01:33.748Z,30.60
2018-08-04T12:04:08.777Z,30.60
2018-08-04T12:06:43.682Z,30.50
2018-08-04T12:09:18.896Z,30.70
2018-08-04T12:11:54.330Z,30.80
2018-08-04T12:14:30.035Z,30.80
2018-08-04T12:17:05.132Z,30.90
2018-08-04T12:19:40.009Z,30.90
2018-08-04T12:22:15.208Z,30.90
2018-08-04T12:24:50.902Z,30.90
2018-08-04T12:27:26.265Z,31.00
2018-08-04T12:30:01.324Z,31.00
2018-08-04T12:32:36.710Z,31.10
2018-08-04T12:35:12.262Z,31.20
2018-08-04T12:37:48.252Z,31.20
2018-08-04T12:40:23.183Z,31.20
2018-08-04T12:43:02.691Z,31.30
2018-08-04T12:48:13.637Z,31.30
2018-08-04T12:50:48.698Z,31.40
2018-08-04T12:53:23.727Z,31.50
2018-08-04T12:55:59.963Z,31.60
2018-08-04T12:58:35.637Z,31.60
2018-08-04T13:01:11.144Z,31.60
2018-08-04T13:03:46.642Z,31.80
2018-08-04T13:06:21.708Z,31.80
2018-08-04T13:08:58.113Z,31.90
2018-08-04T13:11:34.356Z,31.90
2018-08-04T13:14:09.541Z,31.90
2018-08-04T13:16:45.051Z,32.00
2018-08-04T13:19:21.711Z,32.00
2018-08-04T13:21:57.363Z,32.00
2018-08-04T13:24:33.156Z,31.90
2018-08-04T13:27:09.382Z,31.90
2018-08-04T13:29:45.699Z,31.90
2018-08-04T13:32:20.831Z,32.00
2018-08-04T13:34:55.648Z,32.10
2018-08-04T13:37:31.815Z,32.20
2018-08-04T13:40:07.843Z,32.20
2018-08-04T13:45:19.803Z,32.40
2018-08-04T13:47:54.915Z,32.50
2018-08-04T13:50:30.271Z,32.40
2018-08-04T13:53:06.171Z,32.40
2018-08-04T13:55:41.645Z,32.50
2018-08-04T13:58:17.197Z,32.50
2018-08-04T14:00:52.508Z,32.70
2018-08-04T14:03:27.951Z,32.80
2018-08-04T14:06:04.053Z,32.80
2018-08-04T14:08:39.182Z,32.80
2018-08-04T14:11:20.924Z,32.80
2018-08-04T14:13:57.596Z,32.90
2018-08-04T14:16:33.182Z,33.00
2018-08-04T14:19:08.788Z,33.10
2018-08-04T14:21:44.268Z,33.20
2018-08-04T14:24:20.801Z,33.30
2018-08-04T14:26:56.785Z,33.40
2018-08-04T14:29:32.162Z,33.30
2018-08-04T14:32:07.791Z,33.30
2018-08-04T14:34:43.310Z,33.30
2018-08-04T14:37:18.922Z,33.30
2018-08-04T14:39:54.324Z,33.50
2018-08-04T14:42:30.249Z,33.50
2018-08-04T14:45:05.717Z,33.60
2018-08-04T14:47:41.312Z,33.60
2018-08-04T14:50:17.466Z,33.70
2018-08-04T14:52:53.678Z,33.80
2018-08-04T14:55:29.489Z,33.80
2018-08-04T14:58:04.597Z,33.70
2018-08-04T15:00:40.016Z,33.70
2018-08-04T15:03:16.444Z,33.80
2018-08-04T15:05:52.639Z,34.00
2018-08-04T15:08:28.338Z,34.00
2018-08-04T15:11:03.948Z,34.00
2018-08-04T15:13:39.920Z,33.90
2018-08-04T15:16:15.900Z,33.90
2018-08-04T15:18:51.696Z,34.00
2018-08-04T15:21:28.002Z,34.10
2018-08-04T15:24:03.792Z,34.10
2018-08-04T15:26:39.345Z,34.10
2018-08-04T15:29:14.996Z,34.10
2018-08-04T15:31:51.169Z,34.10
2018-08-04T15:34:27.214Z,34.10
2018-08-04T15:37:03.405Z,34.10
2018-08-04T15:39:38.907Z,34.10
2018-08-04T15:42:15.123Z,34.20
2018-08-04T15:44:50.659Z,34.20
2018-08-04T15:47:26.671Z,34.20
2018-08-04T15:50:02.362Z,34.30
2018-08-04T15:52:38.471Z,34.30
2018-08-04T15:55:14.361Z,34.40
2018-08-04T16:00:25.801Z,34.40
2018-08-04T16:03:00.960Z,34.50
2018-08-04T16:05:36.975Z,34.60
2018-08-04T16:08:12.842Z,34.40
2018-08-04T16:10:48.494Z,34.30
2018-08-04T16:13:23.970Z,34.10
2018-08-04T16:16:00.429Z,33.90
2018-08-04T16:18:35.842Z,33.80
2018-08-04T16:21:12.260Z,33.70
2018-08-04T16:23:48.205Z,33.70
2018-08-04T16:26:23.682Z,33.60
2018-08-04T16:28:59.725Z,33.70
2018-08-04T16:31:35.322Z,33.70
2018-08-04T16:34:11.277Z,33.60
2018-08-04T16:36:46.691Z,33.60
2018-08-04T16:39:22.220Z,33.60
2018-08-04T16:41:58.586Z,33.40
2018-08-04T16:44:34.194Z,33.20
2018-08-04T16:47:10.449Z,33.00
2018-08-04T16:49:45.999Z,32.80
2018-08-04T16:52:21.084Z,32.60
2018-08-04T16:54:56.842Z,32.60
2018-08-04T16:57:31.929Z,32.50
2018-08-04T17:00:08.084Z,32.40
2018-08-04T17:02:43.575Z,32.20
2018-08-04T17:05:19.521Z,32.10
2018-08-04T17:10:30.517Z,31.90
2018-08-04T17:13:05.702Z,31.70
2018-08-04T17:15:41.206Z,31.60
2018-08-04T17:18:16.922Z,31.50
2018-08-04T17:20:52.676Z,31.40
2018-08-04T17:23:27.907Z,31.30
2018-08-04T17:26:03.700Z,31.30
2018-08-04T17:28:39.568Z,31.30
2018-08-04T17:31:15.574Z,31.20
2018-08-04T17:33:51.754Z,31.00
2018-08-04T17:36:26.676Z,31.00
2018-08-04T17:39:01.882Z,30.90
2018-08-04T17:41:37.536Z,30.90
2018-08-04T17:44:12.611Z,30.80
2018-08-04T17:46:47.598Z,30.80
2018-08-04T17:49:23.469Z,30.70
2018-08-04T17:51:59.018Z,30.60
2018-08-04T17:54:34.441Z,30.50
2018-08-04T17:57:09.605Z,30.40
2018-08-04T17:59:45.244Z,30.20
2018-08-04T18:02:20.284Z,30.10
2018-08-04T18:04:55.084Z,30.10
2018-08-04T18:07:30.098Z,30.10
2018-08-04T18:10:05.299Z,30.00
2018-08-04T18:12:40.254Z,30.00
2018-08-04T18:15:15.477Z,29.80
2018-08-04T18:17:51.540Z,29.70
2018-08-04T18:20:26.593Z,29.80
2018-08-04T18:25:36.466Z,29.60
2018-08-04T18:28:11.258Z,29.60
2018-08-04T18:30:46.895Z,29.50
2018-08-04T18:33:22.064Z,29.30
2018-08-04T18:35:57.296Z,29.20
2018-08-04T18:38:32.338Z,29.00
2018-08-04T18:41:07.495Z,29.00
2018-08-04T18:43:42.417Z,28.90
2018-08-04T18:46:17.655Z,28.70
2018-08-04T18:48:52.613Z,28.60
2018-08-04T18:51:27.739Z,28.50
2018-08-04T18:54:02.753Z,28.50
2018-08-04T18:59:13.227Z,28.30
2018-08-04T19:01:48.623Z,28.30
2018-08-04T19:04:26.984Z,28.10
2018-08-04T19:07:02.182Z,28.10
2018-08-04T19:09:37.162Z,28.00
2018-08-04T19:12:12.523Z,27.90
2018-08-04T19:14:47.905Z,27.90
2018-08-04T19:17:23.071Z,27.80
2018-08-04T19:19:58.264Z,27.70
2018-08-04T19:22:33.961Z,27.70
2018-08-04T19:25:09.930Z,27.60
2018-08-04T19:27:45.704Z,27.50
2018-08-04T19:30:20.856Z,27.40
2018-08-04T19:32:55.871Z,27.40
2018-08-04T19:35:31.744Z,27.40
2018-08-04T19:40:42.025Z,27.20
2018-08-04T19:43:17.204Z,27.10
2018-08-04T19:45:51.922Z,27.20
2018-08-04T19:48:27.141Z,27.20
2018-08-04T19:51:02.275Z,27.10
2018-08-04T19:53:37.367Z,27.00
2018-08-04T19:56:12.463Z,27.00
2018-08-04T19:58:47.763Z,27.00
2018-08-04T20:01:22.598Z,26.90
2018-08-04T20:03:58.597Z,26.80
2018-08-04T20:06:33.701Z,26.70
2018-08-04T20:09:11.098Z,26.60
2018-08-04T20:11:46.420Z,26.60
2018-08-04T20:14:21.846Z,26.50
2018-08-04T20:16:56.819Z,26.50
2018-08-04T20:19:32.023Z,26.50
2018-08-04T20:22:12.503Z,26.50
2018-08-04T20:24:47.950Z,26.40
2018-08-04T20:27:22.842Z,26.40
2018-08-04T20:29:58.302Z,26.30
2018-08-04T20:32:33.896Z,26.30
2018-08-04T20:35:12.018Z,26.20
2018-08-04T20:37:47.023Z,26.10
2018-08-04T20:40:22.307Z,26.20
2018-08-04T20:42:58.721Z,26.10
2018-08-04T20:45:33.928Z,26.00
2018-08-04T20:48:09.318Z,26.00
2018-08-04T20:50:44.298Z,26.00
2018-08-04T20:53:19.656Z,25.80
2018-08-04T20:55:54.638Z,25.80
2018-08-04T20:58:30.224Z,25.80
2018-08-04T21:01:16.530Z,25.70
2018-08-04T21:03:51.780Z,25.60
2018-08-04T21:06:26.565Z,25.50
2018-08-04T21:09:02.011Z,25.50
2018-08-04T21:14:16.477Z,25.40
2018-08-04T21:16:52.967Z,25.40
2018-08-04T21:19:34.954Z,25.30
2018-08-04T21:22:10.481Z,25.20
2018-08-04T21:24:45.375Z,25.20
2018-08-04T21:27:20.577Z,25.10
2018-08-04T21:29:55.611Z,25.10
2018-08-04T21:32:32.271Z,25.10
2018-08-04T21:35:08.113Z,25.10
2018-08-04T21:37:43.234Z,25.00
2018-08-04T21:40:18.238Z,24.90
2018-08-04T21:42:53.342Z,24.80
2018-08-04T21:45:28.480Z,24.90
2018-08-04T21:48:04.531Z,24.90
2018-08-04T21:53:14.858Z,24.90
2018-08-04T21:55:50.366Z,24.80
2018-08-04T21:58:25.782Z,24.80
2018-08-04T22:01:05.881Z,24.70
2018-08-04T22:06:16.947Z,24.80
2018-08-04T22:09:03.293Z,24.70
2018-08-04T22:11:38.284Z,24.60
2018-08-04T22:14:13.731Z,24.60
2018-08-04T22:16:48.910Z,24.50
2018-08-04T22:19:24.309Z,24.50
2018-08-04T22:21:59.102Z,24.60
2018-08-04T22:24:34.757Z,24.60
2018-08-04T22:27:10.042Z,24.60
2018-08-04T22:29:45.040Z,24.50
2018-08-04T22:32:20.463Z,24.50
2018-08-04T22:34:55.749Z,24.30
2018-08-04T22:37:31.270Z,24.30
2018-08-04T22:40:07.294Z,24.30
2018-08-04T22:42:42.931Z,24.10
2018-08-04T22:46:09.589Z,24.10
2018-08-04T22:48:46.169Z,24.10
2018-08-04T22:54:01.847Z,24.00
2018-08-04T22:56:36.853Z,24.00
2018-08-04T22:59:11.872Z,24.00
2018-08-04T23:01:46.747Z,23.90
2018-08-04T23:04:21.898Z,23.80
2018-08-04T23:06:57.054Z,23.70
2018-08-04T23:09:32.414Z,23.80
2018-08-04T23:12:13.783Z,23.90
2018-08-04T23:14:48.955Z,23.90
2018-08-04T23:19:58.969Z,23.60
2018-08-04T23:22:34.061Z,23.60
2018-08-04T23:25:09.468Z,23.50
2018-08-04T23:27:44.287Z,23.40
2018-08-04T23:30:19.273Z,23.30
2018-08-04T23:32:54.482Z,23.40
2018-08-04T23:38:04.966Z,23.40
2018-08-04T23:40:40.511Z,23.30
2018-08-04T23:43:15.474Z,23.20
2018-08-04T23:45:50.491Z,23.30
2018-08-04T23:48:25.526Z,23.30
2018-08-04T23:51:00.618Z,23.20
2018-08-04T23:53:36.056Z,23.20
2018-08-04T23:56:11.352Z,23.20
2018-08-04T23:58:46.158Z,23.20
